Time;durP1;ratioP1;P1;durP2;ratioP2;P2;SDS_P1;SDS_P2;PMS_P1;PMS_P2;Temp;Humidity;BMP_temperature;BMP_pressure;BME280_temperature;BME280_humidity;BME280_pressure;Samples;Min_cycle;Max_cycle;Signal;HPM_P1;HPM_P2
2021/06/05 00:01:45;;;;;;;13.60;12.27;;;19.80;99.90;;;19.66;98.90;98573.09;5048241;28;20992;-65
2021/06/05 00:04:13;;;;;;;15.53;11.73;;;19.60;99.90;;;19.62;99.39;98579.69;5044821;28;20735;-65
2021/06/05 00:06:41;;;;;;;14.07;11.07;;;19.60;99.90;;;19.59;98.51;98573.84;5046923;28;20664;-65
2021/06/05 00:09:12;;;;;;;11.90;9.63;;;19.50;99.90;;;19.63;97.19;98568.09;5048364;28;20747;-65
2021/06/05 00:11:41;;;;;;;11.00;9.90;;;19.50;99.90;;;19.72;98.46;98561.09;5049284;28;21054;-65
2021/06/05 00:14:13;;;;;;;10.87;9.80;;;19.60;99.90;;;19.82;97.51;98556.56;5046889;28;20727;-65
2021/06/05 00:16:45;;;;;;;11.43;10.33;;;19.70;99.90;;;19.87;98.05;98549.84;5047997;28;20751;-65
2021/06/05 00:19:14;;;;;;;10.33;9.43;;;19.80;99.90;;;19.90;97.76;98549.56;5047182;28;22715;-65
2021/06/05 00:21:43;;;;;;;11.47;10.30;;;19.80;99.90;;;19.95;96.31;98542.84;5046018;28;21085;-65
2021/06/05 00:24:18;;;;;;;10.87;9.97;;;19.80;99.90;;;19.98;96.00;98550.47;5047748;28;21148;-65
2021/06/05 00:26:47;;;;;;;11.93;10.83;;;19.90;99.90;;;19.98;97.61;98550.47;5045220;28;20750;-65
2021/06/05 00:29:15;;;;;;;11.37;10.37;;;19.90;99.90;;;19.93;97.02;98547.41;5048396;28;21291;-65
2021/06/05 00:31:43;;;;;;;14.13;11.77;;;19.90;99.90;;;19.89;97.85;98545.22;5044475;28;20645;-65
2021/06/05 00:34:12;;;;;;;11.13;9.70;;;19.80;99.90;;;19.86;96.75;98534.97;5045256;28;20660;-65
2021/06/05 00:36:41;;;;;;;11.60;10.50;;;19.80;99.90;;;19.90;96.57;98533.66;5046661;28;20646;-65
2021/06/05 00:39:12;;;;;;;11.33;10.33;;;19.80;99.90;;;19.91;97.08;98530.88;5061855;28;20644;-65
2021/06/05 00:41:41;;;;;;;10.57;9.47;;;19.80;99.90;;;19.90;95.82;98528.38;5046774;28;20621;-65
2021/06/05 00:44:12;;;;;;;11.60;10.30;;;19.90;99.90;;;19.88;97.55;98525.03;5046062;28;21208;-65
2021/06/05 00:46:41;;;;;;;11.90;10.60;;;19.90;99.90;;;19.91;97.28;98527.41;5043947;28;20632;-65
2021/06/05 00:49:11;;;;;;;11.50;10.23;;;19.90;99.90;;;19.93;96.16;98520.13;5045555;28;21213;-65
2021/06/05 00:51:42;;;;;;;11.57;10.37;;;19.90;99.90;;;19.95;96.22;98518.13;5047088;28;21177;-65
2021/06/05 00:54:14;;;;;;;11.97;10.77;;;19.90;99.90;;;19.91;95.56;98514.16;5046207;28;21210;-65
2021/06/05 00:56:48;;;;;;;11.20;10.10;;;19.90;99.90;;;19.89;97.26;98508.16;5046244;28;20639;-65
2021/06/05 00:59:17;;;;;;;11.23;10.13;;;19.90;99.90;;;19.86;95.24;98504.00;5045442;28;21065;-65
2021/06/05 01:01:48;;;;;;;12.13;11.00;;;19.90;99.90;;;19.83;95.23;98509.56;5043919;28;20640;-65
2021/06/05 01:04:17;;;;;;;11.23;10.10;;;19.90;99.70;;;19.80;96.61;98519.66;5046271;28;20644;-65
2021/06/05 01:06:53;;;;;;;12.17;10.97;;;19.80;99.70;;;19.73;97.28;98507.16;5057629;28;20765;-65
2021/06/05 01:09:34;;;;;;;10.97;9.93;;;19.70;99.90;;;19.72;97.42;98505.50;5041387;28;21085;-65
2021/06/05 01:12:10;;;;;;;11.27;10.17;;;19.70;99.90;;;19.71;97.37;98502.03;5045342;28;21067;-65
2021/06/05 01:14:48;;;;;;;11.17;10.07;;;19.70;99.90;;;19.72;96.55;98516.91;5044756;28;20728;-65
2021/06/05 01:17:23;;;;;;;11.60;10.50;;;19.70;99.90;;;19.71;96.56;98523.19;5046448;28;20632;-65
2021/06/05 01:19:58;;;;;;;11.73;10.53;;;19.70;99.90;;;19.69;97.34;98517.19;5059104;28;20654;-65
2021/06/05 01:23:03;;;;;;;11.63;10.63;;;19.70;99.90;;;19.68;97.38;98520.00;5044487;28;20629;-65
2021/06/05 01:25:58;;;;;;;11.00;9.90;;;19.70;99.90;;;19.69;96.69;98525.16;5044306;28;21237;-65
2021/06/05 01:28:33;;;;;;;11.20;9.80;;;19.70;99.90;;;19.67;96.64;98519.19;5040668;28;21063;-65
2021/06/05 01:31:06;;;;;;;10.87;9.90;;;19.70;99.90;;;19.65;96.64;98515.84;5062353;28;21015;-65
2021/06/05 01:33:39;;;;;;;11.00;9.90;;;19.70;99.90;;;19.63;96.71;98501.09;5049429;28;20732;-65
2021/06/05 01:36:13;;;;;;;11.90;10.80;;;19.70;99.90;;;19.63;97.09;98507.22;5062557;28;20740;-65
2021/06/05 01:38:46;;;;;;;11.60;10.50;;;19.70;99.90;;;19.64;96.21;98518.66;5066855;28;20629;-65
2021/06/05 01:41:19;;;;;;;11.50;10.40;;;19.70;99.90;;;19.61;95.57;98514.47;5050205;28;20660;-65
2021/06/05 01:43:49;;;;;;;11.00;9.97;;;19.60;99.90;;;19.55;96.66;98512.44;5048791;28;20656;-65
2021/06/05 01:46:25;;;;;;;11.37;10.27;;;19.60;99.90;;;19.54;96.67;98524.00;5045477;28;20683;-65
2021/06/05 01:48:55;;;;;;;14.00;10.30;;;19.60;99.90;;;19.51;95.66;98524.28;5047787;28;20691;-65
2021/06/05 01:51:26;;;;;;;10.97;9.97;;;19.60;99.90;;;19.49;95.59;98520.97;5045930;28;20745;-65
2021/06/05 01:54:04;;;;;;;10.10;9.20;;;19.50;99.90;;;19.45;96.28;98522.25;5048368;28;20703;-65
2021/06/05 01:56:39;;;;;;;11.20;10.17;;;19.50;99.80;;;19.40;94.65;98532.44;5040698;28;20627;-65
2021/06/05 01:59:17;;;;;;;10.20;9.30;;;19.40;99.60;;;19.36;95.38;98524.94;5047075;28;20643;-65
2021/06/05 02:01:53;;;;;;;8.83;7.47;;;19.40;99.70;;;19.36;94.66;98532.88;5049856;28;20648;-65
2021/06/05 02:04:21;;;;;;;8.97;7.70;;;19.40;99.60;;;19.33;96.04;98541.13;5051596;28;20732;-65
2021/06/05 02:06:54;;;;;;;6.97;5.00;;;19.40;99.50;;;19.29;93.89;98536.25;5043988;28;20664;-65
2021/06/05 02:09:27;;;;;;;5.27;4.47;;;19.30;98.80;;;19.26;94.13;98523.34;5051255;28;20674;-65
2021/06/05 02:12:24;;;;;;;6.50;5.03;;;19.30;98.50;;;19.27;92.76;98525.00;5040104;28;20639;-65
2021/06/05 02:15:23;;;;;;;6.67;6.07;;;19.30;98.30;;;19.26;92.85;98525.97;5047898;28;21066;-65
2021/06/05 02:17:59;;;;;;;9.20;7.00;;;19.30;98.20;;;19.20;93.41;98518.63;5050483;28;20751;-65
2021/06/05 02:20:34;;;;;;;7.47;6.67;;;19.30;98.20;;;19.11;92.81;98519.50;5030015;28;20708;-65
2021/06/05 02:23:13;;;;;;;7.33;6.63;;;19.20;98.20;;;19.07;93.08;98518.16;5046466;28;20639;-65
2021/06/05 02:25:42;;;;;;;6.93;6.33;;;19.10;98.40;;;19.01;93.18;98524.00;5048050;28;20652;-65
2021/06/05 02:28:14;;;;;;;7.43;6.23;;;19.10;98.40;;;18.98;94.13;98517.19;5046088;28;20665;-65
2021/06/05 02:30:45;;;;;;;5.20;4.70;;;19.00;98.50;;;18.97;94.25;98525.25;5034058;28;20645;-65
2021/06/05 02:33:13;;;;;;;7.03;5.90;;;19.00;98.40;;;18.95;94.06;98529.88;5061505;28;21277;-65
2021/06/05 02:35:48;;;;;;;7.07;6.43;;;19.00;98.50;;;18.91;94.27;98518.75;5048452;28;20643;-65
2021/06/05 02:38:26;;;;;;;7.27;6.43;;;18.90;98.80;;;18.90;93.25;98516.25;5045853;28;20986;-65
2021/06/05 02:41:00;;;;;;;8.53;7.73;;;18.90;98.50;;;18.85;94.24;98513.19;5050067;28;21017;-65
2021/06/05 02:43:32;;;;;;;10.43;8.90;;;18.90;98.50;;;18.81;93.82;98506.56;5048308;28;20983;-65
2021/06/05 02:46:09;;;;;;;9.73;8.80;;;18.90;98.60;;;18.78;94.80;98506.84;5048066;28;21178;-65
2021/06/05 02:48:47;;;;;;;9.13;8.37;;;18.90;98.80;;;18.76;94.01;98510.59;5049223;28;21194;-65
2021/06/05 02:51:23;;;;;;;9.00;8.20;;;18.80;98.90;;;18.73;94.54;98501.13;5060201;28;20625;-65
2021/06/05 02:53:52;;;;;;;7.93;7.23;;;18.80;99.00;;;18.74;94.73;98500.16;5046263;28;20626;-65
2021/06/05 02:56:25;;;;;;;7.73;7.07;;;18.80;99.40;;;18.76;95.28;98507.94;5065881;28;21245;-65
2021/06/05 02:58:56;;;;;;;12.00;7.10;;;18.80;99.10;;;18.75;94.18;98506.28;5043742;28;20989;-65
2021/06/05 03:01:29;;;;;;;7.93;7.13;;;18.80;98.80;;;18.74;94.29;98510.75;5027212;28;20628;-65
2021/06/05 03:04:00;;;;;;;8.73;7.07;;;18.80;99.30;;;18.75;95.07;98512.41;5045897;28;20696;-65
2021/06/05 03:06:30;;;;;;;8.03;7.27;;;18.80;99.00;;;18.77;94.74;98513.09;5062551;28;20667;-65
2021/06/05 03:08:59;;;;;;;8.30;7.53;;;18.80;98.90;;;18.76;93.88;98514.06;5048397;28;21018;-66
2021/06/05 03:11:29;;;;;;;7.20;6.50;;;18.80;98.90;;;18.74;94.29;98513.38;5048212;28;20639;-66
2021/06/05 03:14:02;;;;;;;7.20;6.50;;;18.70;98.60;;;18.72;94.97;98502.13;5043895;28;20635;-66
2021/06/05 03:16:31;;;;;;;7.80;6.93;;;18.70;98.80;;;18.68;93.75;98503.38;5044955;28;20658;-66
2021/06/05 03:19:01;;;;;;;8.33;7.60;;;18.70;98.80;;;18.64;93.93;98503.81;5045435;28;20996;-66
2021/06/05 03:21:33;;;;;;;7.13;6.43;;;18.70;98.70;;;18.62;93.82;98501.31;5049299;28;21063;-66
2021/06/05 03:24:12;;;;;;;8.17;7.37;;;18.70;98.70;;;18.58;94.39;98505.25;5042446;28;20664;-66
2021/06/05 03:26:40;;;;;;;7.80;7.00;;;18.70;98.60;;;18.57;94.31;98508.84;5046227;28;20647;-66
2021/06/05 03:29:13;;;;;;;8.27;7.33;;;18.60;98.70;;;18.58;94.51;98499.97;5063997;28;21017;-66
2021/06/05 03:31:49;;;;;;;9.43;8.43;;;18.60;98.90;;;18.59;95.11;98501.59;5061392;28;20638;-66
2021/06/05 03:34:18;;;;;;;7.90;7.20;;;18.70;99.10;;;18.57;94.59;98508.84;5047332;28;20658;-66
2021/06/05 03:36:47;;;;;;;8.47;7.73;;;18.60;98.90;;;18.56;94.48;98507.19;5045691;28;20651;-66
2021/06/05 03:39:18;;;;;;;8.57;7.87;;;18.60;99.00;;;18.59;94.57;98509.53;5047768;28;20670;-66
2021/06/05 03:41:48;;;;;;;8.57;7.77;;;18.70;99.20;;;18.61;95.19;98509.38;5046710;28;21064;-66
2021/06/05 03:44:20;;;;;;;9.23;8.33;;;18.70;99.20;;;18.64;94.85;98501.19;5063938;28;20697;-66
2021/06/05 03:46:52;;;;;;;8.83;8.03;;;18.70;99.20;;;18.63;94.76;98504.81;5059745;28;21072;-66
2021/06/05 03:49:20;;;;;;;7.77;7.00;;;18.70;99.10;;;18.60;94.01;98498.00;5061807;28;20670;-66
2021/06/05 03:51:49;;;;;;;7.90;7.20;;;18.70;98.80;;;18.59;93.28;98506.06;5045625;28;20652;-66
2021/06/05 03:54:19;;;;;;;7.53;6.83;;;18.70;98.60;;;18.62;93.96;98503.97;5045771;28;20645;-66
2021/06/05 03:56:47;;;;;;;9.10;8.20;;;18.70;98.70;;;18.68;94.35;98510.50;5048208;28;20686;-66
2021/06/05 03:59:15;;;;;;;9.23;8.33;;;18.70;98.80;;;18.74;94.79;98516.03;5047114;28;20689;-66
2021/06/05 04:01:46;;;;;;;9.13;8.30;;;18.70;99.10;;;18.79;94.20;98511.13;5043415;28;21066;-66
2021/06/05 04:04:15;;;;;;;9.00;8.20;;;18.80;99.40;;;18.81;94.71;98506.56;5046027;28;21237;-66
2021/06/05 04:06:43;;;;;;;8.73;7.90;;;18.80;99.20;;;18.86;93.25;98506.94;5045415;28;20700;-66
2021/06/05 04:09:11;;;;;;;7.17;6.47;;;18.80;99.00;;;18.90;93.89;98508.31;5044732;28;20647;-66
2021/06/05 04:11:39;;;;;;;7.50;6.80;;;18.90;98.80;;;18.93;93.66;98508.03;5048418;28;22839;-66
2021/06/05 04:14:10;;;;;;;7.17;6.30;;;18.90;98.40;;;18.92;91.90;98498.44;5046948;28;20705;-66
2021/06/05 04:16:38;;;;;;;7.00;5.40;;;18.90;98.10;;;18.96;92.91;98495.34;5042726;28;20639;-66
2021/06/05 04:19:07;;;;;;;7.00;5.83;;;18.90;98.10;;;18.99;93.13;98503.00;5043609;28;20643;-66
2021/06/05 04:21:38;;;;;;;5.60;5.00;;;19.00;98.20;;;19.00;92.95;98496.72;5046584;28;20963;-66
2021/06/05 04:24:07;;;;;;;4.17;3.70;;;19.00;98.20;;;19.04;92.23;98508.69;5030622;28;20627;-66
2021/06/05 04:26:35;;;;;;;4.10;3.60;;;19.00;97.90;;;19.08;91.48;98498.69;5046374;28;20685;-66
2021/06/05 04:29:04;;;;;;;3.40;3.00;;;19.10;97.60;;;19.14;91.35;98504.19;5046034;28;20623;-66
2021/06/05 04:31:32;;;;;;;6.13;3.50;;;19.10;97.30;;;19.22;91.91;98509.56;5045357;28;20697;-66
2021/06/05 04:34:00;;;;;;;3.67;3.37;;;19.20;97.40;;;19.31;90.22;98494.66;5045396;28;20742;-66
2021/06/05 04:36:31;;;;;;;4.07;3.63;;;19.20;97.80;;;19.41;90.16;98499.72;5045772;28;20984;-66
2021/06/05 04:38:59;;;;;;;4.23;3.30;;;19.30;97.20;;;19.52;89.77;98503.97;5063069;28;20630;-66
2021/06/05 04:41:28;;;;;;;3.20;3.00;;;19.40;97.20;;;19.63;90.08;98501.09;5048143;28;20654;-66
2021/06/05 04:43:56;;;;;;;3.77;3.37;;;19.50;97.40;;;19.72;91.20;98503.66;5049354;28;20635;-66
2021/06/05 04:46:24;;;;;;;3.60;3.23;;;19.60;97.40;;;19.80;90.67;98506.41;5058967;28;20643;-66
2021/06/05 04:48:53;;;;;;;4.47;3.10;;;19.70;97.00;;;19.89;89.94;98510.81;5044673;28;20715;-66
2021/06/05 04:51:23;;;;;;;4.40;4.00;;;19.80;97.20;;;19.94;89.01;98511.19;5048026;28;21008;-66
2021/06/05 04:53:53;;;;;;;3.90;3.60;;;19.80;96.90;;;19.96;90.60;98506.56;5044602;28;20614;-66
2021/06/05 04:56:26;;;;;;;5.67;5.10;;;19.80;97.00;;;20.03;91.57;98505.00;5045913;28;20652;-66
2021/06/05 04:58:54;;;;;;;7.73;6.17;;;19.90;97.50;;;20.09;91.82;98499.91;5048321;28;20704;-66
2021/06/05 05:01:23;;;;;;;6.73;6.13;;;20.00;98.10;;;20.11;91.36;98495.28;5045126;28;20650;-66
2021/06/05 05:03:51;;;;;;;7.13;5.77;;;20.00;98.00;;;20.11;90.66;98503.22;5044641;28;20642;-66
2021/06/05 05:06:19;;;;;;;7.87;6.67;;;20.10;97.60;;;20.14;90.84;98499.44;5045906;28;20687;-66
2021/06/05 05:08:48;;;;;;;8.00;7.20;;;20.10;97.60;;;20.03;91.61;98497.03;5050053;28;20698;-66
2021/06/05 05:11:17;;;;;;;7.30;6.70;;;20.00;97.20;;;20.01;91.62;98491.03;5048342;28;20648;-66
2021/06/05 05:13:47;;;;;;;7.23;6.53;;;19.90;97.40;;;20.04;90.73;98496.03;5047851;28;20636;-66
2021/06/05 05:16:16;;;;;;;7.60;6.20;;;20.00;97.50;;;20.06;92.06;98491.44;5043182;28;20628;-66
2021/06/05 05:18:46;;;;;;;6.27;5.77;;;20.00;97.70;;;20.11;92.19;98495.28;5044252;28;21195;-66
2021/06/05 05:21:16;;;;;;;6.00;5.50;;;20.10;97.80;;;20.14;92.72;98499.44;5048261;28;21171;-66
2021/06/05 05:23:44;;;;;;;9.80;5.60;;;20.10;97.90;;;20.15;91.88;98503.78;5047678;28;21167;-66
2021/06/05 05:26:13;;;;;;;6.80;6.20;;;20.10;97.70;;;20.16;90.96;98500.13;5047362;28;21034;-66
2021/06/05 05:28:44;;;;;;;6.23;5.63;;;20.10;97.70;;;20.16;92.53;98500.13;5047122;28;20643;-66
2021/06/05 05:31:15;;;;;;;6.70;6.00;;;20.20;97.60;;;20.20;92.28;98504.13;5048255;28;20680;-66
2021/06/05 05:33:44;;;;;;;6.90;6.10;;;20.20;97.90;;;20.21;92.68;98498.69;5045528;28;20632;-66
2021/06/05 05:36:18;;;;;;;7.43;6.73;;;20.20;98.00;;;20.23;92.86;98501.16;5047180;28;21176;-66
2021/06/05 05:38:46;;;;;;;7.60;6.90;;;20.20;98.00;;;20.24;92.21;98498.38;5046361;28;20675;-66
2021/06/05 05:41:17;;;;;;;7.83;7.13;;;20.30;98.00;;;20.26;91.77;98500.88;5064255;28;21241;-66
2021/06/05 05:43:47;;;;;;;8.60;7.80;;;20.30;98.10;;;20.29;92.57;98493.44;5046368;28;20673;-67
2021/06/05 05:46:16;;;;;;;10.73;8.53;;;20.30;98.00;;;20.31;92.14;98498.56;5044740;28;21200;-68
2021/06/05 05:48:45;;;;;;;8.73;7.83;;;20.30;98.30;;;20.32;93.53;98501.91;5043892;28;20649;-68
2021/06/05 05:51:16;;;;;;;12.27;9.07;;;20.30;98.50;;;20.36;93.84;98500.59;5043669;28;20656;-68
2021/06/05 05:53:44;;;;;;;9.40;8.50;;;20.40;98.70;;;20.41;92.67;98505.44;5048142;28;21234;-68
2021/06/05 05:56:15;;;;;;;9.57;8.60;;;20.40;98.70;;;20.44;94.11;98515.75;5044756;28;21187;-68
2021/06/05 05:58:49;;;;;;;8.87;8.07;;;20.40;98.60;;;20.46;92.62;98513.75;5047280;28;20640;-68
2021/06/05 06:01:20;;;;;;;8.53;7.77;;;20.50;98.60;;;20.46;93.55;98517.25;5046302;28;21408;-68
2021/06/05 06:03:49;;;;;;;8.87;8.07;;;20.50;98.40;;;20.48;93.63;98512.63;5045566;28;21182;-68
2021/06/05 06:06:18;;;;;;;9.20;8.30;;;20.50;98.30;;;20.49;91.70;98516.94;5047534;28;21040;-67
2021/06/05 06:08:46;;;;;;;9.37;8.47;;;20.50;98.20;;;20.50;91.80;98523.88;5047961;28;20664;-67
2021/06/05 06:11:16;;;;;;;9.37;8.37;;;20.50;98.20;;;20.53;92.07;98531.53;5047343;28;20660;-67
2021/06/05 06:13:46;;;;;;;9.17;8.27;;;20.50;98.40;;;20.58;93.33;98533.72;5043377;28;21236;-67
2021/06/05 06:16:16;;;;;;;9.80;8.10;;;20.60;98.20;;;20.59;92.97;98541.53;5048141;28;20683;-67
2021/06/05 06:18:46;;;;;;;9.73;8.40;;;20.60;98.00;;;20.65;92.93;98545.38;5051307;28;20640;-68
2021/06/05 06:21:18;;;;;;;8.90;8.10;;;20.60;98.60;;;20.68;91.30;98543.28;5051117;28;21163;-68
2021/06/05 06:23:48;;;;;;;9.30;8.40;;;20.60;97.70;;;20.68;91.33;98539.81;5050941;28;20633;-67
2021/06/05 06:26:20;;;;;;;9.00;8.10;;;20.60;97.40;;;20.74;91.13;98542.66;5047226;28;20667;-67
2021/06/05 06:28:50;;;;;;;8.63;7.80;;;20.70;97.40;;;20.87;90.24;98541.25;5064223;28;20626;-67
2021/06/05 06:31:21;;;;;;;8.67;7.27;;;20.70;97.40;;;21.00;90.18;98551.41;5050331;28;20653;-67
2021/06/05 06:33:50;;;;;;;8.43;7.63;;;20.90;97.10;;;21.23;90.71;98549.88;5052603;28;20738;-67
2021/06/05 06:36:20;;;;;;;7.17;6.50;;;21.00;97.80;;;21.58;89.54;98553.22;5050908;28;20637;-67
2021/06/05 06:38:50;;;;;;;8.60;7.60;;;21.30;97.60;;;21.90;88.19;98546.94;5049171;28;20993;-67
2021/06/05 06:41:24;;;;;;;7.10;6.40;;;21.60;96.80;;;22.05;87.49;98553.28;5051514;28;21208;-67
2021/06/05 06:43:55;;;;;;;7.00;6.30;;;21.80;96.50;;;22.11;86.97;98546.50;5048862;28;20630;-67
2021/06/05 06:46:25;;;;;;;6.20;5.70;;;21.90;95.80;;;22.21;86.48;98549.88;5049952;28;20637;-67
2021/06/05 06:48:56;;;;;;;5.63;5.10;;;22.00;95.70;;;22.22;84.83;98549.69;5051286;28;20643;-67
2021/06/05 06:51:26;;;;;;;7.17;6.10;;;22.10;94.30;;;22.17;85.34;98553.81;5049886;28;20701;-67
2021/06/05 06:53:54;;;;;;;6.80;6.20;;;22.00;94.30;;;22.27;87.02;98558.00;5048363;28;20666;-67
2021/06/05 06:56:24;;;;;;;7.60;6.90;;;22.10;95.40;;;22.28;85.47;98555.19;5045861;28;20619;-67
2021/06/05 06:58:53;;;;;;;6.50;5.90;;;22.10;94.70;;;22.37;86.41;98569.28;5051097;28;20646;-67
2021/06/05 07:01:22;;;;;;;6.97;6.27;;;22.20;94.80;;;22.44;87.13;98565.00;5047603;28;20632;-67
2021/06/05 07:03:50;;;;;;;6.17;5.60;;;22.30;94.90;;;22.48;85.21;98571.66;5048505;28;20707;-67
2021/06/05 07:06:21;;;;;;;5.50;5.00;;;22.30;93.90;;;22.50;83.93;98580.28;5051514;28;21023;-67
2021/06/05 07:08:50;;;;;;;4.80;4.40;;;22.40;93.30;;;22.48;82.65;98579.63;5044990;28;20634;-67
2021/06/05 07:11:22;;;;;;;5.80;5.30;;;22.40;92.40;;;22.51;83.26;98577.44;5049055;28;21260;-67
2021/06/05 07:13:50;;;;;;;4.97;4.47;;;22.40;93.10;;;22.52;83.21;98579.13;5049343;28;20655;-67
2021/06/05 07:16:20;;;;;;;4.60;4.10;;;22.40;93.00;;;22.48;80.79;98577.78;5049292;28;20641;-67
2021/06/05 07:18:49;;;;;;;4.70;4.30;;;22.40;91.40;;;22.42;81.63;98577.63;5028098;28;20631;-67
2021/06/05 07:21:17;;;;;;;4.90;4.40;;;22.30;91.50;;;22.45;82.78;98577.28;5047531;28;20744;-67
2021/06/05 07:23:47;;;;;;;6.47;4.73;;;22.30;92.10;;;22.48;81.15;98575.13;5028139;28;20631;-68
2021/06/05 07:26:19;;;;;;;4.60;4.10;;;22.30;91.50;;;22.54;81.53;98581.63;5049619;28;20643;-67
2021/06/05 07:28:51;;;;;;;4.90;4.10;;;22.40;91.80;;;22.56;81.03;98584.94;5047630;28;20731;-67
2021/06/05 07:31:25;;;;;;;5.10;4.37;;;22.30;91.40;;;22.69;81.33;98583.44;5032626;28;20666;-71
2021/06/05 07:33:54;;;;;;;6.30;4.93;;;22.50;91.70;;;22.69;80.36;98580.78;5049201;28;20696;-67
2021/06/05 07:36:34;;;;;;;5.17;4.77;;;22.50;91.20;;;22.78;82.10;98585.09;5047268;28;20623;-66
2021/06/05 07:39:04;;;;;;;4.50;4.10;;;22.60;92.20;;;22.92;82.20;98589.72;5060037;28;20655;-67
2021/06/05 07:41:33;;;;;;;5.47;4.97;;;22.70;92.50;;;22.97;82.13;98590.91;5049435;28;20719;-67
2021/06/05 07:44:01;;;;;;;4.90;3.80;;;22.80;92.30;;;23.24;81.10;98595.81;5045665;28;20648;-68
2021/06/05 07:46:31;;;;;;;5.53;4.80;;;23.00;92.00;;;23.62;81.50;98603.00;5047376;28;22922;-68
2021/06/05 07:49:00;;;;;;;4.80;3.87;;;23.20;91.90;;;24.29;77.94;98594.16;5047676;28;20645;-67
2021/06/05 07:51:28;;;;;;;3.10;2.60;;;23.80;90.90;;;24.63;77.04;98596.41;5044465;28;20694;-67
2021/06/05 07:53:56;;;;;;;2.70;2.50;;;24.10;90.10;;;24.77;74.68;98593.81;5059140;28;20656;-67
2021/06/05 07:56:24;;;;;;;3.37;2.80;;;24.30;86.40;;;24.66;75.00;98586.22;5055654;28;20637;-67
2021/06/05 07:58:52;;;;;;;2.43;2.20;;;24.30;84.40;;;24.65;76.17;98587.22;5046633;28;20639;-67
2021/06/05 08:01:22;;;;;;;2.53;2.33;;;24.40;86.00;;;24.63;75.93;98589.25;5045854;28;20655;-67
2021/06/05 08:03:52;;;;;;;5.10;2.77;;;24.40;85.50;;;24.57;75.33;98587.31;5042940;28;20627;-67
2021/06/05 08:06:21;;;;;;;5.40;2.50;;;24.40;84.10;;;24.57;74.65;98581.97;5049174;28;20654;-67
2021/06/05 08:08:52;;;;;;;5.20;2.73;;;24.40;84.30;;;24.57;76.04;98584.63;5047990;28;21155;-67
2021/06/05 08:11:21;;;;;;;3.87;2.73;;;24.40;84.70;;;24.53;75.75;98591.34;5030925;28;20643;-67
2021/06/05 08:13:50;;;;;;;3.53;3.00;;;24.40;84.30;;;24.56;75.61;98588.31;5048619;28;20676;-67
2021/06/05 08:16:18;;;;;;;4.40;3.33;;;24.40;85.10;;;24.57;75.74;98576.63;5045706;28;20644;-67
2021/06/05 08:18:46;;;;;;;3.73;3.00;;;24.40;84.30;;;24.61;75.81;98585.09;5052988;28;20989;-67
2021/06/05 08:21:18;;;;;;;3.37;3.07;;;24.50;85.10;;;24.64;75.69;98585.56;5044485;28;20666;-67
2021/06/05 08:23:46;;;;;;;2.90;2.70;;;24.50;85.20;;;24.70;75.72;98584.84;5043885;28;20701;-67
2021/06/05 08:26:18;;;;;;;6.00;2.77;;;24.50;85.40;;;24.74;74.57;98588.81;5049774;28;20692;-67
2021/06/05 08:28:46;;;;;;;5.20;3.20;;;24.50;82.80;;;24.82;72.48;98599.41;5047475;28;20692;-73
2021/06/05 08:31:17;;;;;;;3.80;3.43;;;24.60;81.10;;;25.05;73.41;98597.56;5055430;28;20710;-67
2021/06/05 08:33:46;;;;;;;4.23;3.63;;;24.80;81.80;;;25.12;73.15;98595.81;5043841;28;20668;-67
2021/06/05 08:36:19;;;;;;;3.70;3.17;;;24.90;81.10;;;25.09;72.36;98588.19;5049859;28;20685;-66
2021/06/05 08:38:47;;;;;;;4.60;3.27;;;24.90;80.10;;;25.13;73.25;98589.50;5043334;28;20620;-67
2021/06/05 08:41:26;;;;;;;4.53;3.23;;;24.90;81.90;;;25.12;73.76;98587.81;5044132;28;21449;-69
2021/06/05 08:44:02;;;;;;;3.10;2.67;;;24.90;81.70;;;25.03;74.50;98586.25;5046731;28;20625;-66
2021/06/05 08:46:34;;;;;;;3.80;3.40;;;24.90;82.30;;;24.95;72.58;98594.31;5040998;28;21716;-67
2021/06/05 08:49:08;;;;;;;3.90;3.60;;;24.80;80.30;;;24.89;75.28;98593.19;5044699;28;20634;-67
2021/06/05 08:51:54;;;;;;;3.80;3.40;;;24.70;83.60;;;24.85;73.72;98589.22;5043759;28;20686;-66
2021/06/05 08:54:41;;;;;;;4.43;3.30;;;24.70;82.30;;;24.90;74.75;98584.16;5046482;28;21237;-67
2021/06/05 08:57:28;;;;;;;4.30;3.40;;;24.70;82.30;;;24.99;73.23;98587.59;5048232;28;20631;-68
2021/06/05 09:00:07;;;;;;;4.38;3.60;;;24.80;81.70;;;24.98;75.04;98583.25;5033351;28;20732;-66
2021/06/05 09:02:37;;;;;;;4.80;4.40;;;24.80;82.70;;;24.97;74.75;98582.41;5045583;28;20202;-67
2021/06/05 09:05:10;;;;;;;3.97;3.57;;;24.80;83.90;;;24.91;75.39;98582.31;5043225;28;20677;-65
2021/06/05 09:07:41;;;;;;;3.90;3.60;;;24.80;83.30;;;24.81;75.47;98584.44;5042309;28;20668;-65
2021/06/05 09:10:12;;;;;;;3.60;3.30;;;24.70;83.50;;;24.71;74.87;98584.66;5045998;28;20667;-65
2021/06/05 09:12:40;;;;;;;3.73;3.40;;;24.70;81.80;;;24.67;73.63;98582.53;5047951;28;21027;-67
2021/06/05 09:15:28;;;;;;;4.27;3.73;;;24.70;81.50;;;24.63;74.66;98582.06;5060580;28;20613;-66
2021/06/05 09:18:00;;;;;;;4.83;4.23;;;24.60;81.80;;;24.60;74.10;98581.63;5045844;28;20631;-67
2021/06/05 09:20:37;;;;;;;3.93;3.30;;;24.50;82.20;;;24.61;74.41;98580.59;5045732;28;20676;-66
2021/06/05 09:23:28;;;;;;;6.03;3.33;;;24.50;81.80;;;24.57;74.82;98587.31;5048371;28;20711;-66
2021/06/05 09:26:17;;;;;;;4.43;3.27;;;24.50;81.60;;;24.51;74.48;98582.69;5059261;28;20639;-66
2021/06/05 09:28:46;;;;;;;3.93;3.43;;;24.50;82.10;;;24.43;74.39;98582.75;5045917;28;20639;-66
2021/06/05 09:31:19;;;;;;;3.53;3.23;;;24.40;81.50;;;24.37;74.63;98575.47;5046435;28;20652;-66
2021/06/05 09:33:48;;;;;;;3.33;3.03;;;24.30;82.00;;;24.35;75.65;98577.47;5048357;28;20640;-66
2021/06/05 09:36:25;;;;;;;3.87;3.53;;;24.20;83.00;;;24.34;76.93;98581.16;5046152;28;20697;-67
2021/06/05 09:38:58;;;;;;;6.23;5.17;;;24.30;84.20;;;24.33;76.32;98576.81;5046118;28;20779;-67
2021/06/05 09:41:38;;;;;;;5.77;5.27;;;24.20;83.50;;;24.39;76.11;98581.44;5043281;28;20783;-67
2021/06/05 09:44:26;;;;;;;5.07;4.57;;;24.30;84.00;;;24.46;76.47;98578.88;5049263;28;20646;-67
2021/06/05 09:46:59;;;;;;;3.50;3.20;;;24.30;84.80;;;24.52;75.96;98580.84;5050400;28;20619;-67
2021/06/05 09:49:40;;;;;;;3.70;3.30;;;24.40;84.60;;;24.56;76.33;98587.50;5041716;28;20772;-67
2021/06/05 09:52:13;;;;;;;2.83;2.50;;;24.40;83.90;;;24.59;73.97;98590.63;5041847;28;20699;-67
2021/06/05 09:54:46;;;;;;;2.40;2.10;;;24.50;81.80;;;24.59;73.23;98587.94;5055486;28;20648;-67
2021/06/05 09:57:37;;;;;;;3.97;2.07;;;24.50;80.20;;;24.59;73.07;98587.94;5051430;28;20632;-68
2021/06/05 10:00:16;;;;;;;2.70;2.23;;;24.50;79.80;;;24.60;73.56;98586.09;5051602;28;20719;-68
2021/06/05 10:02:47;;;;;;;2.87;2.30;;;24.50;79.40;;;24.56;72.86;98585.63;5054140;28;20667;-68
2021/06/05 10:05:29;;;;;;;2.60;2.40;;;24.50;79.20;;;24.58;73.34;98583.63;5052247;28;20628;-68
2021/06/05 10:08:00;;;;;;;2.50;1.90;;;24.50;80.20;;;24.59;73.87;98579.94;5046125;28;20631;-68
2021/06/05 10:10:39;;;;;;;2.67;2.10;;;24.50;80.20;;;24.63;74.57;98577.72;5054720;28;20704;-68
2021/06/05 10:13:15;;;;;;;3.22;2.30;;;24.50;80.80;;;24.64;74.01;98588.22;5051211;28;20763;-68
2021/06/05 10:15:53;;;;;;;3.33;2.23;;;24.50;81.20;;;24.74;74.41;98588.81;5055026;28;20207;-67
2021/06/05 10:18:26;;;;;;;2.70;2.30;;;24.60;81.50;;;24.88;73.57;98591.53;5068936;28;20624;-67
2021/06/05 10:21:02;;;;;;;2.47;2.20;;;24.70;81.90;;;24.96;73.53;98593.28;5053502;28;20636;-74
2021/06/05 10:23:34;;;;;;;2.50;2.30;;;24.80;81.50;;;24.98;74.30;98588.59;5046943;28;20634;-69
2021/06/05 10:26:11;;;;;;;4.13;2.30;;;24.80;81.20;;;25.03;74.54;98588.91;5054200;28;20630;-65
2021/06/05 10:28:45;;;;;;;3.80;3.03;;;24.80;81.60;;;25.02;73.78;98589.91;5049861;28;20631;-66
2021/06/05 10:31:17;;;;;;;2.50;2.30;;;24.90;81.10;;;24.94;73.78;98590.81;5045896;28;20992;-65
2021/06/05 10:33:50;;;;;;;4.03;2.93;;;24.80;81.30;;;24.81;74.25;98584.44;5052061;28;20631;-65
2021/06/05 10:36:23;;;;;;;3.27;2.13;;;24.60;80.90;;;24.78;74.48;98585.63;5045270;28;20625;-64
2021/06/05 10:38:54;;;;;;;1.70;1.60;;;24.60;82.00;;;24.84;74.64;98589.41;5046971;28;20647;-72